sensor_id;sensor_type;location;lat;lon;timestamp;pressure;altitude;pressure_sealevel;temperature;humidity
47524;BME280;33253;42.144;25.884;2023-05-07T00:00:18;100739.66;;;13.25;99.71
47524;BME280;33253;42.144;25.884;2023-05-07T00:02:45;100758.09;;;13.35;100.00
47524;BME280;33253;42.144;25.884;2023-05-07T00:05:10;100683.03;;;12.82;100.00
47524;BME280;33253;42.144;25.884;2023-05-07T00:07:36;100759.88;;;13.36;100.00
47524;BME280;33253;42.144;25.884;2023-05-07T00:10:02;100747.06;;;13.13;100.00
47524;BME280;33253;42.144;25.884;2023-05-07T00:12:27;100757.56;;;13.18;100.00
47524;BME280;33253;42.144;25.884;2023-05-07T00:14:57;100752.66;;;13.27;100.00
47524;BME280;33253;42.144;25.884;2023-05-07T00:17:22;100722.34;;;13.24;99.68
47524;BME280;33253;42.144;25.884;2023-05-07T00:19:48;100719.84;;;13.27;97.23
47524;BME280;33253;42.144;25.884;2023-05-07T00:22:13;100748.06;;;13.46;96.99
47524;BME280;33253;42.144;25.884;2023-05-07T00:24:39;100630.72;;;12.93;96.06
47524;BME280;33253;42.144;25.884;2023-05-07T00:27:04;100720.50;;;13.49;94.98
47524;BME280;33253;42.144;25.884;2023-05-07T00:29:30;100663.25;;;13.13;94.08
47524;BME280;33253;42.144;25.884;2023-05-07T00:31:55;100726.84;;;13.59;94.47
47524;BME280;33253;42.144;25.884;2023-05-07T00:34:21;100733.09;;;13.66;93.60
47524;BME280;33253;42.144;25.884;2023-05-07T00:36:47;100646.06;;;13.16;93.63
47524;BME280;33253;42.144;25.884;2023-05-07T00:39:13;100733.78;;;13.60;93.29
47524;BME280;33253;42.144;25.884;2023-05-07T00:41:38;100723.41;;;13.60;92.99
47524;BME280;33253;42.144;25.884;2023-05-07T00:44:04;100731.97;;;13.56;94.18
47524;BME280;33253;42.144;25.884;2023-05-07T00:46:30;100657.88;;;13.06;94.49
47524;BME280;33253;42.144;25.884;2023-05-07T00:48:56;100732.47;;;13.44;93.30
47524;BME280;33253;42.144;25.884;2023-05-07T00:51:23;100734.78;;;13.35;93.91
47524;BME280;33253;42.144;25.884;2023-05-07T00:53:50;100733.94;;;13.36;94.29
47524;BME280;33253;42.144;25.884;2023-05-07T00:56:16;100738.03;;;13.29;94.89
47524;BME280;33253;42.144;25.884;2023-05-07T00:58:41;100688.41;;;12.88;94.13
47524;BME280;33253;42.144;25.884;2023-05-07T01:01:07;100731.97;;;13.00;94.23
47524;BME280;33253;42.144;25.884;2023-05-07T01:03:33;100740.78;;;12.77;94.98
47524;BME280;33253;42.144;25.884;2023-05-07T01:06:00;100737.06;;;12.43;95.29
47524;BME280;33253;42.144;25.884;2023-05-07T01:08:27;100736.13;;;12.16;97.20
47524;BME280;33253;42.144;25.884;2023-05-07T01:10:56;100734.09;;;12.07;99.99
47524;BME280;33253;42.144;25.884;2023-05-07T01:13:22;100645.41;;;11.62;100.00
47524;BME280;33253;42.144;25.884;2023-05-07T01:15:49;100729.22;;;12.16;100.00
47524;BME280;33253;42.144;25.884;2023-05-07T01:18:15;100726.16;;;12.26;100.00
47524;BME280;33253;42.144;25.884;2023-05-07T01:20:41;100721.53;;;12.18;100.00
47524;BME280;33253;42.144;25.884;2023-05-07T01:23:07;100724.22;;;12.21;100.00
47524;BME280;33253;42.144;25.884;2023-05-07T01:25:32;100744.28;;;12.26;100.00
47524;BME280;33253;42.144;25.884;2023-05-07T01:27:58;100707.69;;;12.17;99.35
47524;BME280;33253;42.144;25.884;2023-05-07T01:30:27;100728.06;;;12.32;99.50
47524;BME280;33253;42.144;25.884;2023-05-07T01:33:08;100643.22;;;11.73;99.08
47524;BME280;33253;42.144;25.884;2023-05-07T01:35:38;100701.09;;;12.01;99.24
47524;BME280;33253;42.144;25.884;2023-05-07T01:38:05;100737.38;;;12.27;98.98
47524;BME280;33253;42.144;25.884;2023-05-07T01:40:31;100731.47;;;12.31;97.74
47524;BME280;33253;42.144;25.884;2023-05-07T01:42:57;100727.03;;;12.27;96.64
47524;BME280;33253;42.144;25.884;2023-05-07T01:45:23;100737.91;;;12.42;97.30
47524;BME280;33253;42.144;25.884;2023-05-07T01:47:49;100713.53;;;12.37;95.94
47524;BME280;33253;42.144;25.884;2023-05-07T01:50:16;100723.19;;;12.41;95.24
47524;BME280;33253;42.144;25.884;2023-05-07T01:52:43;100717.00;;;12.36;95.13
47524;BME280;33253;42.144;25.884;2023-05-07T01:55:09;100658.69;;;11.72;95.69
47524;BME280;33253;42.144;25.884;2023-05-07T01:57:34;100708.81;;;12.00;97.07
47524;BME280;33253;42.144;25.884;2023-05-07T02:00:00;100733.50;;;12.14;96.26
47524;BME280;33253;42.144;25.884;2023-05-07T02:02:26;100737.69;;;12.10;nan
47524;BME280;33253;42.144;25.884;2023-05-07T02:04:51;100641.25;;;11.42;97.56
47524;BME280;33253;42.144;25.884;2023-05-07T02:07:16;100710.50;;;11.75;98.84
47524;BME280;33253;42.144;25.884;2023-05-07T02:09:42;100721.56;;;11.95;98.75
47524;BME280;33253;42.144;25.884;2023-05-07T02:12:07;100712.66;;;11.87;98.43
47524;BME280;33253;42.144;25.884;2023-05-07T02:14:33;100690.84;;;11.31;97.95
47524;BME280;33253;42.144;25.884;2023-05-07T02:16:58;100711.63;;;11.35;99.75
47524;BME280;33253;42.144;25.884;2023-05-07T02:19:23;100710.31;;;11.46;98.79
47524;BME280;33253;42.144;25.884;2023-05-07T02:21:49;100712.19;;;11.50;98.31
47524;BME280;33253;42.144;25.884;2023-05-07T02:24:15;100707.91;;;11.51;98.30
47524;BME280;33253;42.144;25.884;2023-05-07T02:26:40;100722.13;;;11.62;97.69
47524;BME280;33253;42.144;25.884;2023-05-07T02:29:06;100673.97;;;11.41;97.07
47524;BME280;33253;42.144;25.884;2023-05-07T02:31:32;100691.97;;;11.62;96.42
47524;BME280;33253;42.144;25.884;2023-05-07T02:33:59;100697.69;;;11.78;96.50
47524;BME280;33253;42.144;25.884;2023-05-07T02:36:25;100652.69;;;11.48;99.59
47524;BME280;33253;42.144;25.884;2023-05-07T02:38:52;100637.53;;;11.35;99.80
47524;BME280;33253;42.144;25.884;2023-05-07T02:41:17;100647.38;;;11.21;99.35
47524;BME280;33253;42.144;25.884;2023-05-07T02:43:42;100708.19;;;11.58;100.00
47524;BME280;33253;42.144;25.884;2023-05-07T02:46:08;100705.06;;;11.43;100.00
47524;BME280;33253;42.144;25.884;2023-05-07T02:48:34;100702.91;;;11.08;100.00
47524;BME280;33253;42.144;25.884;2023-05-07T02:51:00;100633.56;;;10.31;100.00
47524;BME280;33253;42.144;25.884;2023-05-07T02:53:26;100626.88;;;10.15;100.00
47524;BME280;33253;42.144;25.884;2023-05-07T02:55:53;100693.25;;;10.60;100.00
47524;BME280;33253;42.144;25.884;2023-05-07T02:58:19;100699.09;;;10.35;100.00
47524;BME280;33253;42.144;25.884;2023-05-07T03:00:44;100667.41;;;10.18;100.00
47524;BME280;33253;42.144;25.884;2023-05-07T03:03:10;100724.38;;;10.63;100.00
47524;BME280;33253;42.144;25.884;2023-05-07T03:05:36;100705.34;;;10.61;100.00
47524;BME280;33253;42.144;25.884;2023-05-07T03:08:01;100703.41;;;10.77;100.00
47524;BME280;33253;42.144;25.884;2023-05-07T03:10:27;100700.97;;;10.81;100.00
47524;BME280;33253;42.144;25.884;2023-05-07T03:12:52;100658.00;;;10.61;100.00
47524;BME280;33253;42.144;25.884;2023-05-07T03:15:18;100718.50;;;11.11;100.00
47524;BME280;33253;42.144;25.884;2023-05-07T03:17:43;100691.31;;;10.98;100.00
47524;BME280;33253;42.144;25.884;2023-05-07T03:20:09;100733.66;;;11.02;100.00
47524;BME280;33253;42.144;25.884;2023-05-07T03:22:34;100714.13;;;10.88;100.00
47524;BME280;33253;42.144;25.884;2023-05-07T03:25:00;100698.47;;;10.83;100.00
47524;BME280;33253;42.144;25.884;2023-05-07T03:27:25;100730.94;;;10.99;100.00
47524;BME280;33253;42.144;25.884;2023-05-07T03:29:51;100727.66;;;11.03;100.00
47524;BME280;33253;42.144;25.884;2023-05-07T03:32:16;100709.69;;;10.83;100.00
47524;BME280;33253;42.144;25.884;2023-05-07T03:34:42;100735.94;;;10.94;99.54
47524;BME280;33253;42.144;25.884;2023-05-07T03:37:07;100722.34;;;10.77;99.19
47524;BME280;33253;42.144;25.884;2023-05-07T03:39:32;100706.34;;;10.65;99.51
47524;BME280;33253;42.144;25.884;2023-05-07T03:41:58;100635.22;;;10.08;100.00
47524;BME280;33253;42.144;25.884;2023-05-07T03:44:23;100739.81;;;10.83;100.00
47524;BME280;33253;42.144;25.884;2023-05-07T03:46:49;100718.66;;;10.71;100.00
47524;BME280;33253;42.144;25.884;2023-05-07T03:49:14;100742.66;;;10.68;100.00
47524;BME280;33253;42.144;25.884;2023-05-07T03:51:40;100735.91;;;10.72;100.00
47524;BME280;33253;42.144;25.884;2023-05-07T03:54:05;100748.31;;;10.80;100.00
47524;BME280;33253;42.144;25.884;2023-05-07T03:56:31;100741.88;;;10.71;100.00
47524;BME280;33253;42.144;25.884;2023-05-07T03:58:56;100754.19;;;10.78;100.00
47524;BME280;33253;42.144;25.884;2023-05-07T04:01:22;100753.22;;;10.74;100.00
47524;BME280;33253;42.144;25.884;2023-05-07T04:03:47;100746.28;;;10.73;100.00
47524;BME280;33253;42.144;25.884;2023-05-07T04:06:12;100747.41;;;10.80;100.00
47524;BME280;33253;42.144;25.884;2023-05-07T04:08:38;100766.63;;;10.87;100.00
47524;BME280;33253;42.144;25.884;2023-05-07T04:11:03;100761.94;;;10.99;100.00
47524;BME280;33253;42.144;25.884;2023-05-07T04:13:29;100768.31;;;11.07;100.00
47524;BME280;33253;42.144;25.884;2023-05-07T04:15:55;100770.13;;;11.10;100.00
47524;BME280;33253;42.144;25.884;2023-05-07T04:18:21;100754.63;;;11.10;100.00
47524;BME280;33253;42.144;25.884;2023-05-07T04:20:47;100756.00;;;11.23;100.00
47524;BME280;33253;42.144;25.884;2023-05-07T04:23:14;100769.31;;;11.33;100.00
47524;BME280;33253;42.144;25.884;2023-05-07T04:25:39;100771.84;;;11.32;100.00
47524;BME280;33253;42.144;25.884;2023-05-07T04:28:05;100766.78;;;11.35;100.00
47524;BME280;33253;42.144;25.884;2023-05-07T04:30:31;100702.06;;;11.09;100.00
47524;BME280;33253;42.144;25.884;2023-05-07T04:32:56;100763.81;;;11.47;100.00
47524;BME280;33253;42.144;25.884;2023-05-07T04:35:22;100770.06;;;11.54;100.00
47524;BME280;33253;42.144;25.884;2023-05-07T04:37:47;100769.06;;;11.50;100.00
47524;BME280;33253;42.144;25.884;2023-05-07T04:40:13;100760.66;;;11.31;100.00
47524;BME280;33253;42.144;25.884;2023-05-07T04:42:38;100771.38;;;11.42;100.00
47524;BME280;33253;42.144;25.884;2023-05-07T04:45:04;100710.47;;;11.04;100.00
47524;BME280;33253;42.144;25.884;2023-05-07T04:47:30;100779.94;;;11.41;100.00
47524;BME280;33253;42.144;25.884;2023-05-07T04:49:57;100779.19;;;11.44;100.00
47524;BME280;33253;42.144;25.884;2023-05-07T04:52:23;100781.28;;;11.53;100.00
47524;BME280;33253;42.144;25.884;2023-05-07T04:54:48;100780.59;;;11.36;100.00
47524;BME280;33253;42.144;25.884;2023-05-07T04:57:13;100788.72;;;11.45;100.00
47524;BME280;33253;42.144;25.884;2023-05-07T04:59:39;100789.84;;;11.52;100.00
47524;BME280;33253;42.144;25.884;2023-05-07T05:02:05;100789.34;;;11.62;100.00
47524;BME280;33253;42.144;25.884;2023-05-07T05:04:30;100793.94;;;11.69;100.00
47524;BME280;33253;42.144;25.884;2023-05-07T05:06:56;100797.63;;;11.76;100.00
47524;BME280;33253;42.144;25.884;2023-05-07T05:09:21;100783.94;;;11.78;100.00
47524;BME280;33253;42.144;25.884;2023-05-07T05:11:47;100794.72;;;11.91;100.00
47524;BME280;33253;42.144;25.884;2023-05-07T05:14:12;100791.16;;;11.87;100.00
47524;BME280;33253;42.144;25.884;2023-05-07T05:16:38;100734.00;;;11.57;100.00
47524;BME280;33253;42.144;25.884;2023-05-07T05:19:03;100774.16;;;11.94;100.00
47524;BME280;33253;42.144;25.884;2023-05-07T05:21:29;100776.09;;;12.00;100.00
47524;BME280;33253;42.144;25.884;2023-05-07T05:23:54;100802.34;;;12.35;100.00
47524;BME280;33253;42.144;25.884;2023-05-07T05:26:19;100789.38;;;12.33;100.00
47524;BME280;33253;42.144;25.884;2023-05-07T05:28:46;100802.94;;;12.52;100.00
47524;BME280;33253;42.144;25.884;2023-05-07T05:31:12;100805.22;;;12.68;100.00
47524;BME280;33253;42.144;25.884;2023-05-07T05:33:37;100794.25;;;12.75;100.00
47524;BME280;33253;42.144;25.884;2023-05-07T05:36:03;100796.09;;;12.79;100.00
47524;BME280;33253;42.144;25.884;2023-05-07T05:38:28;100802.00;;;13.01;100.00
47524;BME280;33253;42.144;25.884;2023-05-07T05:40:54;100810.09;;;13.12;100.00
47524;BME280;33253;42.144;25.884;2023-05-07T05:43:20;100814.78;;;13.22;100.00
47524;BME280;33253;42.144;25.884;2023-05-07T05:45:45;100817.19;;;13.18;100.00
47524;BME280;33253;42.144;25.884;2023-05-07T05:48:11;100821.84;;;13.28;100.00
47524;BME280;33253;42.144;25.884;2023-05-07T05:50:36;100822.81;;;13.32;100.00
47524;BME280;33253;42.144;25.884;2023-05-07T05:53:02;100812.91;;;13.46;100.00
47524;BME280;33253;42.144;25.884;2023-05-07T05:55:28;100824.44;;;13.55;100.00
47524;BME280;33253;42.144;25.884;2023-05-07T05:57:53;100798.66;;;13.60;100.00
47524;BME280;33253;42.144;25.884;2023-05-07T06:00:19;100682.09;;;12.79;100.00
47524;BME280;33253;42.144;25.884;2023-05-07T06:02:47;100816.97;;;13.65;100.00
47524;BME280;33253;42.144;25.884;2023-05-07T06:05:13;100826.09;;;13.81;100.00
47524;BME280;33253;42.144;25.884;2023-05-07T06:07:40;100737.84;;;13.50;100.00
47524;BME280;33253;42.144;25.884;2023-05-07T06:10:06;100823.44;;;14.10;100.00
47524;BME280;33253;42.144;25.884;2023-05-07T06:12:32;100799.91;;;14.03;100.00
47524;BME280;33253;42.144;25.884;2023-05-07T06:14:57;100822.69;;;14.14;100.00
47524;BME280;33253;42.144;25.884;2023-05-07T06:17:22;100797.59;;;14.14;100.00
47524;BME280;33253;42.144;25.884;2023-05-07T06:19:48;100812.22;;;14.44;100.00
47524;BME280;33253;42.144;25.884;2023-05-07T06:22:13;100825.91;;;14.69;100.00
47524;BME280;33253;42.144;25.884;2023-05-07T06:24:39;100831.34;;;14.78;100.00
47524;BME280;33253;42.144;25.884;2023-05-07T06:27:04;100803.56;;;14.76;100.00
47524;BME280;33253;42.144;25.884;2023-05-07T06:29:30;100819.72;;;14.99;100.00
47524;BME280;33253;42.144;25.884;2023-05-07T06:32:09;100827.09;;;15.17;100.00
47524;BME280;33253;42.144;25.884;2023-05-07T06:34:35;100816.69;;;15.17;100.00
47524;BME280;33253;42.144;25.884;2023-05-07T06:37:01;100801.81;;;15.11;100.00
47524;BME280;33253;42.144;25.884;2023-05-07T06:39:26;100836.16;;;15.33;96.60
47524;BME280;33253;42.144;25.884;2023-05-07T06:41:52;100823.34;;;15.42;92.40
47524;BME280;33253;42.144;25.884;2023-05-07T06:44:17;100828.84;;;15.56;88.37
47524;BME280;33253;42.144;25.884;2023-05-07T06:46:42;100818.72;;;15.70;84.30
47524;BME280;33253;42.144;25.884;2023-05-07T06:49:08;100837.16;;;15.79;84.55
47524;BME280;33253;42.144;25.884;2023-05-07T06:51:33;100830.50;;;15.91;84.73
47524;BME280;33253;42.144;25.884;2023-05-07T06:53:59;100828.38;;;16.14;85.73
47524;BME280;33253;42.144;25.884;2023-05-07T06:56:25;100825.09;;;16.24;82.12
47524;BME280;33253;42.144;25.884;2023-05-07T06:58:50;100832.47;;;16.48;81.26
47524;BME280;33253;42.144;25.884;2023-05-07T07:01:16;100833.50;;;16.57;81.84
47524;BME280;33253;42.144;25.884;2023-05-07T07:03:41;100821.41;;;16.59;80.45
47524;BME280;33253;42.144;25.884;2023-05-07T07:06:07;100832.06;;;16.73;78.08
47524;BME280;33253;42.144;25.884;2023-05-07T07:08:32;100763.63;;;16.34;81.62
47524;BME280;33253;42.144;25.884;2023-05-07T07:10:58;100835.91;;;16.93;79.75
47524;BME280;33253;42.144;25.884;2023-05-07T07:13:23;100832.16;;;16.79;79.48
47524;BME280;33253;42.144;25.884;2023-05-07T07:15:49;100839.06;;;16.77;78.66
47524;BME280;33253;42.144;25.884;2023-05-07T07:18:14;100816.22;;;16.62;78.99
47524;BME280;33253;42.144;25.884;2023-05-07T07:20:40;100838.34;;;16.84;76.22
47524;BME280;33253;42.144;25.884;2023-05-07T07:23:06;100795.47;;;16.68;76.08
47524;BME280;33253;42.144;25.884;2023-05-07T07:25:31;100844.13;;;17.18;75.08
47524;BME280;33253;42.144;25.884;2023-05-07T07:27:57;100846.06;;;17.28;70.90
47524;BME280;33253;42.144;25.884;2023-05-07T07:30:22;100841.81;;;17.38;67.13
47524;BME280;33253;42.144;25.884;2023-05-07T07:32:47;100807.59;;;17.18;66.71
47524;BME280;33253;42.144;25.884;2023-05-07T07:35:13;100828.09;;;17.50;72.93
47524;BME280;33253;42.144;25.884;2023-05-07T07:37:38;100828.13;;;17.53;69.24
47524;BME280;33253;42.144;25.884;2023-05-07T07:40:04;100775.69;;;17.36;65.95
47524;BME280;33253;42.144;25.884;2023-05-07T07:42:30;100835.41;;;17.77;68.41
47524;BME280;33253;42.144;25.884;2023-05-07T07:44:55;100829.16;;;17.65;67.75
47524;BME280;33253;42.144;25.884;2023-05-07T07:47:22;100832.75;;;17.73;68.84
47524;BME280;33253;42.144;25.884;2023-05-07T07:49:47;100830.91;;;17.66;70.05
47524;BME280;33253;42.144;25.884;2023-05-07T07:52:13;100751.13;;;17.20;68.65
47524;BME280;33253;42.144;25.884;2023-05-07T07:54:38;100774.72;;;17.29;70.81
47524;BME280;33253;42.144;25.884;2023-05-07T07:57:04;100824.81;;;17.67;67.55
47524;BME280;33253;42.144;25.884;2023-05-07T07:59:29;100820.81;;;17.92;63.72
47524;BME280;33253;42.144;25.884;2023-05-07T08:01:55;100830.00;;;18.31;62.40
47524;BME280;33253;42.144;25.884;2023-05-07T08:04:22;100832.75;;;18.45;62.75
47524;BME280;33253;42.144;25.884;2023-05-07T08:06:49;100832.75;;;18.47;62.78
47524;BME280;33253;42.144;25.884;2023-05-07T08:09:14;100832.75;;;18.45;62.80
47524;BME280;33253;42.144;25.884;2023-05-07T08:11:40;100829.34;;;18.52;62.70
47524;BME280;33253;42.144;25.884;2023-05-07T08:14:05;100829.28;;;18.46;63.60
47524;BME280;33253;42.144;25.884;2023-05-07T08:16:31;100835.38;;;18.47;62.66
47524;BME280;33253;42.144;25.884;2023-05-07T08:18:56;100825.88;;;18.53;61.28
47524;BME280;33253;42.144;25.884;2023-05-07T08:21:22;100833.84;;;18.66;61.71
47524;BME280;33253;42.144;25.884;2023-05-07T08:23:48;100807.69;;;18.69;61.04
47524;BME280;33253;42.144;25.884;2023-05-07T08:26:16;100833.31;;;19.02;57.96
47524;BME280;33253;42.144;25.884;2023-05-07T08:28:41;100757.19;;;18.73;58.74
47524;BME280;33253;42.144;25.884;2023-05-07T08:31:07;100833.50;;;19.24;60.13
47524;BME280;33253;42.144;25.884;2023-05-07T08:33:32;100732.72;;;18.66;57.83
47524;BME280;33253;42.144;25.884;2023-05-07T08:35:57;100821.22;;;19.21;55.54
47524;BME280;33253;42.144;25.884;2023-05-07T08:38:23;100824.69;;;19.19;53.96
47524;BME280;33253;42.144;25.884;2023-05-07T08:40:49;100811.59;;;19.14;52.99
47524;BME280;33253;42.144;25.884;2023-05-07T08:43:15;100820.41;;;19.24;58.19
47524;BME280;33253;42.144;25.884;2023-05-07T08:45:45;100810.00;;;19.41;54.02
47524;BME280;33253;42.144;25.884;2023-05-07T08:48:17;100795.19;;;19.46;56.93
47524;BME280;33253;42.144;25.884;2023-05-07T08:50:42;100728.72;;;19.16;53.51
47524;BME280;33253;42.144;25.884;2023-05-07T08:53:08;100810.19;;;19.70;56.32
47524;BME280;33253;42.144;25.884;2023-05-07T08:55:33;100797.09;;;19.70;54.69
47524;BME280;33253;42.144;25.884;2023-05-07T08:58:00;100789.28;;;19.81;52.17
47524;BME280;33253;42.144;25.884;2023-05-07T09:00:26;100802.47;;;20.03;52.13
47524;BME280;33253;42.144;25.884;2023-05-07T09:02:52;100805.13;;;20.15;53.91
47524;BME280;33253;42.144;25.884;2023-05-07T09:05:19;100806.94;;;20.35;53.41
47524;BME280;33253;42.144;25.884;2023-05-07T09:07:44;100770.22;;;20.30;50.62
47524;BME280;33253;42.144;25.884;2023-05-07T09:10:11;100795.59;;;20.55;51.14
47524;BME280;33253;42.144;25.884;2023-05-07T09:12:36;100792.97;;;20.67;51.89
47524;BME280;33253;42.144;25.884;2023-05-07T09:15:02;100786.84;;;20.68;49.29
47524;BME280;33253;42.144;25.884;2023-05-07T09:17:29;100787.75;;;20.81;52.85
47524;BME280;33253;42.144;25.884;2023-05-07T09:19:54;100784.25;;;20.88;49.03
47524;BME280;33253;42.144;25.884;2023-05-07T09:22:20;100748.38;;;20.65;51.16
47524;BME280;33253;42.144;25.884;2023-05-07T09:24:50;100783.34;;;21.05;48.10
47524;BME280;33253;42.144;25.884;2023-05-07T09:27:17;100785.13;;;21.10;50.60
47524;BME280;33253;42.144;25.884;2023-05-07T09:29:43;100778.97;;;21.17;48.07
47524;BME280;33253;42.144;25.884;2023-05-07T09:32:09;100780.75;;;20.98;48.97
47524;BME280;33253;42.144;25.884;2023-05-07T09:34:34;100772.88;;;21.14;49.36
47524;BME280;33253;42.144;25.884;2023-05-07T09:37:04;100765.00;;;21.19;45.20
47524;BME280;33253;42.144;25.884;2023-05-07T09:42:06;100753.53;;;21.37;47.92
47524;BME280;33253;42.144;25.884;2023-05-07T09:44:32;100753.50;;;21.52;47.03
47524;BME280;33253;42.144;25.884;2023-05-07T09:47:00;100746.50;;;21.60;46.12
47524;BME280;33253;42.144;25.884;2023-05-07T09:49:29;100739.44;;;21.70;48.11
47524;BME280;33253;42.144;25.884;2023-05-07T09:51:59;100704.47;;;21.56;48.42
47524;BME280;33253;42.144;25.884;2023-05-07T09:54:25;100733.25;;;21.80;46.91
47524;BME280;33253;42.144;25.884;2023-05-07T09:56:54;100734.09;;;21.87;52.50
47524;BME280;33253;42.144;25.884;2023-05-07T09:59:22;100721.78;;;21.97;46.73
47524;BME280;33253;42.144;25.884;2023-05-07T10:01:50;100723.56;;;21.89;44.05
47524;BME280;33253;42.144;25.884;2023-05-07T10:04:17;100729.69;;;21.92;43.40
47524;BME280;33253;42.144;25.884;2023-05-07T10:06:44;100722.63;;;22.04;47.07
47524;BME280;33253;42.144;25.884;2023-05-07T10:09:11;100728.59;;;22.27;45.13
47524;BME280;33253;42.144;25.884;2023-05-07T10:11:37;100663.00;;;22.07;44.08
47524;BME280;33253;42.144;25.884;2023-05-07T10:14:04;100725.69;;;22.65;39.36
47524;BME280;33253;42.144;25.884;2023-05-07T10:16:34;100705.59;;;22.53;42.27
47524;BME280;33253;42.144;25.884;2023-05-07T10:19:04;100687.31;;;22.42;42.50
47524;BME280;33253;42.144;25.884;2023-05-07T10:21:30;100730.09;;;22.62;43.85
47524;BME280;33253;42.144;25.884;2023-05-07T10:24:19;100732.91;;;22.41;44.19
47524;BME280;33253;42.144;25.884;2023-05-07T10:26:48;100610.50;;;21.96;44.40
47524;BME280;33253;42.144;25.884;2023-05-07T10:31:59;100718.88;;;22.42;40.28
47524;BME280;33253;42.144;25.884;2023-05-07T10:34:36;100657.81;;;21.95;41.52
47524;BME280;33253;42.144;25.884;2023-05-07T10:37:03;100725.66;;;22.66;43.15
47524;BME280;33253;42.144;25.884;2023-05-07T10:39:29;100711.44;;;22.87;45.08
47524;BME280;33253;42.144;25.884;2023-05-07T10:41:55;100679.78;;;22.93;43.52
47524;BME280;33253;42.144;25.884;2023-05-07T10:44:26;100720.59;;;23.38;41.64
47524;BME280;33253;42.144;25.884;2023-05-07T10:49:31;100704.59;;;23.52;38.64
47524;BME280;33253;42.144;25.884;2023-05-07T10:52:22;100709.91;;;23.47;41.06
47524;BME280;33253;42.144;25.884;2023-05-07T10:57:50;100699.72;;;23.15;40.76
47524;BME280;33253;42.144;25.884;2023-05-07T11:03:04;100695.56;;;23.70;42.46
47524;BME280;33253;42.144;25.884;2023-05-07T11:05:33;100691.63;;;24.02;39.08
47524;BME280;33253;42.144;25.884;2023-05-07T11:08:02;100695.66;;;24.25;40.35
47524;BME280;33253;42.144;25.884;2023-05-07T11:10:56;100699.09;;;24.31;38.84
47524;BME280;33253;42.144;25.884;2023-05-07T11:13:48;100698.91;;;24.41;39.55
47524;BME280;33253;42.144;25.884;2023-05-07T11:16:22;100684.78;;;24.43;39.08
47524;BME280;33253;42.144;25.884;2023-05-07T11:18:53;100675.81;;;24.55;41.85
47524;BME280;33253;42.144;25.884;2023-05-07T11:21:38;100669.09;;;24.35;41.18
47524;BME280;33253;42.144;25.884;2023-05-07T11:24:08;100678.66;;;24.41;41.38
47524;BME280;33253;42.144;25.884;2023-05-07T11:26:46;100671.19;;;24.68;38.76
47524;BME280;33253;42.144;25.884;2023-05-07T11:29:17;100663.00;;;24.82;39.55
47524;BME280;33253;42.144;25.884;2023-05-07T11:31:43;100634.84;;;24.82;40.84
47524;BME280;33253;42.144;25.884;2023-05-07T11:34:09;100662.50;;;25.10;37.06
47524;BME280;33253;42.144;25.884;2023-05-07T11:36:35;100663.56;;;24.99;36.73
47524;BME280;33253;42.144;25.884;2023-05-07T11:39:01;100672.13;;;24.64;37.28
47524;BME280;33253;42.144;25.884;2023-05-07T11:41:36;100669.31;;;24.75;37.20
47524;BME280;33253;42.144;25.884;2023-05-07T11:44:02;100664.78;;;24.81;38.25
47524;BME280;33253;42.144;25.884;2023-05-07T11:46:28;100657.81;;;24.77;38.60
47524;BME280;33253;42.144;25.884;2023-05-07T11:48:55;100665.72;;;24.27;35.94
47524;BME280;33253;42.144;25.884;2023-05-07T11:51:23;100661.47;;;24.18;38.37
47524;BME280;33253;42.144;25.884;2023-05-07T11:53:49;100663.78;;;24.37;39.68
47524;BME280;33253;42.144;25.884;2023-05-07T11:56:17;100625.88;;;24.41;37.68
47524;BME280;33253;42.144;25.884;2023-05-07T11:58:44;100628.41;;;23.96;38.22
47524;BME280;33253;42.144;25.884;2023-05-07T12:01:11;100658.75;;;24.23;40.37
47524;BME280;33253;42.144;25.884;2023-05-07T12:03:37;100647.06;;;24.38;36.52
47524;BME280;33253;42.144;25.884;2023-05-07T12:06:10;100644.56;;;24.30;36.22
47524;BME280;33253;42.144;25.884;2023-05-07T12:08:37;100655.72;;;23.90;38.44
47524;BME280;33253;42.144;25.884;2023-05-07T12:11:03;100633.47;;;24.10;37.98
47524;BME280;33253;42.144;25.884;2023-05-07T12:13:31;100626.78;;;24.42;37.50
47524;BME280;33253;42.144;25.884;2023-05-07T12:15:57;100629.78;;;24.71;37.86
47524;BME280;33253;42.144;25.884;2023-05-07T12:18:23;100619.00;;;24.82;39.75
47524;BME280;33253;42.144;25.884;2023-05-07T12:20:49;100634.00;;;25.24;40.12
47524;BME280;33253;42.144;25.884;2023-05-07T12:23:15;100616.25;;;25.29;34.04
47524;BME280;33253;42.144;25.884;2023-05-07T12:25:42;100587.97;;;24.92;36.10
47524;BME280;33253;42.144;25.884;2023-05-07T12:28:15;100557.09;;;24.03;38.72
47524;BME280;33253;42.144;25.884;2023-05-07T12:30:42;100631.72;;;24.60;40.16
47524;BME280;33253;42.144;25.884;2023-05-07T12:33:08;100618.97;;;24.84;37.05
47524;BME280;33253;42.144;25.884;2023-05-07T12:35:39;100610.69;;;24.55;36.75
47524;BME280;33253;42.144;25.884;2023-05-07T12:38:10;100606.13;;;24.15;37.67
47524;BME280;33253;42.144;25.884;2023-05-07T12:40:46;100602.13;;;23.89;37.11
47524;BME280;33253;42.144;25.884;2023-05-07T12:43:25;100616.66;;;23.57;38.55
47524;BME280;33253;42.144;25.884;2023-05-07T12:46:03;100618.63;;;24.02;39.78